Time;durP1;ratioP1;P1;durP2;ratioP2;P2;SDS_P1;SDS_P2;PMS_P1;PMS_P2;Temp;Humidity;BMP_temperature;BMP_pressure;BME280_temperature;BME280_humidity;BME280_pressure;Samples;Min_cycle;Max_cycle;Signal;HPM_P1;HPM_P2
2021/07/20 00:00:48;;;;;;;43.60;20.83;;;;;;;;;;5010679;28;20120;-56
2021/07/20 00:03:14;;;;;;;35.10;18.85;;;;;;;;;;5008059;28;20098;-57
2021/07/20 00:05:42;;;;;;;35.88;18.17;;;;;;;;;;5007515;28;20113;-56
2021/07/20 00:08:09;;;;;;;39.10;17.75;;;;;;;;;;5006697;28;20053;-57
2021/07/20 00:10:36;;;;;;;35.67;18.08;;;;;;;;;;5007189;28;20134;-57
2021/07/20 00:13:06;;;;;;;30.17;18.00;;;;;;;;;;5009228;28;20566;-55
2021/07/20 00:15:32;;;;;;;28.67;17.60;;;;;;;;;;5007028;28;20084;-57
2021/07/20 00:17:59;;;;;;;33.25;16.92;;;;;;;;;;5010021;28;20624;-55
2021/07/20 00:20:26;;;;;;;31.38;17.95;;;;;;;;;;5007471;28;20041;-58
2021/07/20 00:22:52;;;;;;;31.25;16.75;;;;;;;;;;5012718;28;20064;-54
2021/07/20 00:25:18;;;;;;;31.45;18.05;;;;;;;;;;5012100;28;20491;-56
2021/07/20 00:27:44;;;;;;;29.00;16.13;;;;;;;;;;5012557;28;20042;-56
2021/07/20 00:30:10;;;;;;;27.13;15.63;;;;;;;;;;5011728;28;20053;-57
2021/07/20 00:32:37;;;;;;;29.38;15.18;;;;;;;;;;5011749;28;20046;-56
2021/07/20 00:35:04;;;;;;;22.67;14.18;;;;;;;;;;5013190;28;20038;-55
2021/07/20 00:37:30;;;;;;;30.85;15.07;;;;;;;;;;5011398;28;20069;-57
2021/07/20 00:39:55;;;;;;;28.33;17.27;;;;;;;;;;5010438;28;20884;-57
2021/07/20 00:42:22;;;;;;;28.85;16.85;;;;;;;;;;5011964;28;20057;-55
2021/07/20 00:44:48;;;;;;;31.02;15.73;;;;;;;;;;5012474;28;20037;-56
2021/07/20 00:47:14;;;;;;;24.17;14.70;;;;;;;;;;5012588;28;20063;-57
2021/07/20 00:49:40;;;;;;;26.05;15.05;;;;;;;;;;5015217;28;20502;-56
2021/07/20 00:52:06;;;;;;;27.80;16.75;;;;;;;;;;5014548;28;20053;-57
2021/07/20 00:54:32;;;;;;;26.02;16.05;;;;;;;;;;5016149;28;20975;-56
2021/07/20 00:56:58;;;;;;;26.45;15.13;;;;;;;;;;5013224;28;20041;-58
2021/07/20 00:59:24;;;;;;;25.75;16.35;;;;;;;;;;5014360;28;22892;-57
2021/07/20 01:01:50;;;;;;;33.08;15.10;;;;;;;;;;5023805;28;20091;-55
2021/07/20 01:04:16;;;;;;;30.48;16.98;;;;;;;;;;5019868;28;20558;-58
2021/07/20 01:06:42;;;;;;;31.10;16.45;;;;;;;;;;5013372;28;20738;-56
2021/07/20 01:09:09;;;;;;;30.00;15.63;;;;;;;;;;5011190;28;20053;-57
2021/07/20 01:11:35;;;;;;;25.92;14.90;;;;;;;;;;5012735;28;20037;-56
2021/07/20 01:14:04;;;;;;;24.88;14.85;;;;;;;;;;5014848;28;20065;-55
2021/07/20 01:16:34;;;;;;;27.90;14.77;;;;;;;;;;5014775;28;20389;-56
2021/07/20 01:19:01;;;;;;;26.20;15.40;;;;;;;;;;5015177;28;20072;-58
2021/07/20 01:21:27;;;;;;;21.05;13.35;;;;;;;;;;5014907;28;20040;-57
2021/07/20 01:23:56;;;;;;;21.58;13.13;;;;;;;;;;5016416;28;20466;-57
2021/07/20 01:26:22;;;;;;;25.17;14.95;;;;;;;;;;5017228;28;20052;-59
2021/07/20 01:28:48;;;;;;;22.52;12.98;;;;;;;;;;5015085;28;20402;-57
2021/07/20 01:31:18;;;;;;;21.27;12.38;;;;;;;;;;5012054;28;20042;-57
2021/07/20 01:33:45;;;;;;;24.85;13.15;;;;;;;;;;5011448;28;20037;-56
2021/07/20 01:36:12;;;;;;;21.75;13.80;;;;;;;;;;5012267;28;20048;-57
2021/07/20 01:38:39;;;;;;;23.02;13.57;;;;;;;;;;5009902;28;20049;-56
2021/07/20 01:41:07;;;;;;;21.13;13.10;;;;;;;;;;5009606;28;20103;-56
2021/07/20 01:43:33;;;;;;;25.08;13.98;;;;;;;;;;5009016;28;20115;-56
2021/07/20 01:46:00;;;;;;;30.15;13.48;;;;;;;;;;5023761;28;20045;-57
2021/07/20 01:48:27;;;;;;;22.08;12.70;;;;;;;;;;5010369;28;20367;-56
2021/07/20 01:50:54;;;;;;;22.48;12.68;;;;;;;;;;5009797;28;20798;-57
2021/07/20 01:53:20;;;;;;;22.73;12.57;;;;;;;;;;5009525;28;20041;-56
2021/07/20 01:55:46;;;;;;;25.35;13.15;;;;;;;;;;5011109;28;20038;-57
2021/07/20 01:58:12;;;;;;;21.23;12.40;;;;;;;;;;5009288;28;20076;-57
2021/07/20 02:00:38;;;;;;;21.75;12.27;;;;;;;;;;5009162;28;20034;-56
2021/07/20 02:08:27;;;;;;;25.73;13.07;;;;;;;;;;5009808;28;20052;-57
2021/07/20 02:10:54;;;;;;;22.08;13.63;;;;;;;;;;5011468;28;20040;-58
2021/07/20 02:13:20;;;;;;;21.42;12.93;;;;;;;;;;5011756;28;20042;-58
2021/07/20 02:15:47;;;;;;;23.35;12.82;;;;;;;;;;5010310;28;20044;-56
2021/07/20 02:18:13;;;;;;;24.90;12.73;;;;;;;;;;5010820;28;20049;-57
2021/07/20 02:20:40;;;;;;;23.17;12.68;;;;;;;;;;5006532;28;20042;-54
2021/07/20 02:23:06;;;;;;;23.80;12.98;;;;;;;;;;5010861;28;20076;-56
2021/07/20 02:25:33;;;;;;;21.95;12.52;;;;;;;;;;5000324;28;20125;-55
2021/07/20 02:27:59;;;;;;;22.10;12.05;;;;;;;;;;5021013;28;20258;-56
2021/07/20 02:30:24;;;;;;;22.52;12.18;;;;;;;;;;5007538;28;20033;-58
2021/07/20 02:32:51;;;;;;;28.98;12.43;;;;;;;;;;5009591;28;20038;-55
2021/07/20 02:35:19;;;;;;;19.73;11.85;;;;;;;;;;5011282;28;20061;-56
2021/07/20 02:37:45;;;;;;;21.25;12.73;;;;;;;;;;5008264;28;20046;-55
2021/07/20 02:40:11;;;;;;;21.30;12.02;;;;;;;;;;5009236;28;20254;-53
2021/07/20 02:42:39;;;;;;;27.83;13.32;;;;;;;;;;5009219;28;20073;-53
2021/07/20 02:45:06;;;;;;;19.45;11.98;;;;;;;;;;5015327;28;20038;-54
2021/07/20 02:47:33;;;;;;;22.90;12.18;;;;;;;;;;5007202;28;20490;-53
2021/07/20 02:49:58;;;;;;;24.75;13.00;;;;;;;;;;5008228;28;20195;-55
2021/07/20 02:52:30;;;;;;;22.27;12.02;;;;;;;;;;5010358;28;22001;-57
2021/07/20 02:55:00;;;;;;;24.10;13.40;;;;;;;;;;5011715;28;20049;-55
2021/07/20 02:57:26;;;;;;;22.25;12.35;;;;;;;;;;5009198;28;20041;-55
2021/07/20 02:59:52;;;;;;;28.65;13.48;;;;;;;;;;5010081;28;20059;-56
2021/07/20 03:02:19;;;;;;;23.58;13.50;;;;;;;;;;5008083;28;20059;-54
2021/07/20 03:05:03;;;;;;;24.77;12.80;;;;;;;;;;4996311;28;20029;-61
2021/07/20 03:07:29;;;;;;;23.10;12.70;;;;;;;;;;4992033;28;20172;-55
2021/07/20 03:09:55;;;;;;;24.25;12.93;;;;;;;;;;5005654;28;20049;-52
2021/07/20 03:12:22;;;;;;;24.30;13.18;;;;;;;;;;5007981;28;20145;-52
2021/07/20 03:14:49;;;;;;;23.88;13.55;;;;;;;;;;5008853;28;20129;-55
2021/07/20 03:17:15;;;;;;;25.83;13.45;;;;;;;;;;5008265;28;20076;-52
2021/07/20 03:19:43;;;;;;;28.80;13.35;;;;;;;;;;5006875;28;20104;-57
2021/07/20 03:22:12;;;;;;;22.95;12.38;;;;;;;;;;5006777;28;20062;-53
2021/07/20 03:24:39;;;;;;;21.23;12.40;;;;;;;;;;5007138;28;20066;-55
2021/07/20 03:27:05;;;;;;;20.08;11.10;;;;;;;;;;5008301;28;20042;-53
2021/07/20 03:29:31;;;;;;;21.95;12.48;;;;;;;;;;5006170;28;20052;-57
2021/07/20 03:31:58;;;;;;;20.50;11.45;;;;;;;;;;5009790;28;20037;-57
2021/07/20 03:34:24;;;;;;;19.88;11.82;;;;;;;;;;5008736;28;20386;-56
2021/07/20 03:36:50;;;;;;;22.27;11.52;;;;;;;;;;5005224;28;20038;-54
2021/07/20 03:39:17;;;;;;;19.60;11.27;;;;;;;;;;5008441;28;20391;-56
2021/07/20 03:41:43;;;;;;;23.48;11.77;;;;;;;;;;5008948;28;20764;-54
2021/07/20 03:44:10;;;;;;;24.75;12.70;;;;;;;;;;5008331;28;20046;-56
2021/07/20 03:46:39;;;;;;;22.67;12.90;;;;;;;;;;5007750;28;20133;-52
2021/07/20 03:49:04;;;;;;;22.27;12.45;;;;;;;;;;5007152;28;20087;-53
2021/07/20 03:51:30;;;;;;;27.85;13.77;;;;;;;;;;5007264;28;20136;-56
2021/07/20 03:53:56;;;;;;;23.63;12.95;;;;;;;;;;5008897;28;20101;-57
2021/07/20 03:56:23;;;;;;;25.98;13.38;;;;;;;;;;5010500;28;20586;-57
2021/07/20 03:58:50;;;;;;;25.10;13.38;;;;;;;;;;5012355;28;20054;-57
2021/07/20 04:01:16;;;;;;;23.92;13.20;;;;;;;;;;5012001;28;20096;-57
2021/07/20 04:03:44;;;;;;;22.67;13.02;;;;;;;;;;5012766;28;20037;-58
2021/07/20 04:06:12;;;;;;;22.60;13.13;;;;;;;;;;5013318;28;20052;-56
2021/07/20 04:08:38;;;;;;;24.25;13.05;;;;;;;;;;5014154;28;20046;-58
2021/07/20 04:11:05;;;;;;;26.52;14.48;;;;;;;;;;5015083;28;20451;-55
2021/07/20 04:13:31;;;;;;;30.35;14.90;;;;;;;;;;5010962;28;20041;-56
2021/07/20 04:16:02;;;;;;;27.40;14.15;;;;;;;;;;5010603;28;20042;-53
2021/07/20 04:18:31;;;;;;;31.75;15.52;;;;;;;;;;5015046;28;20061;-54
2021/07/20 04:20:57;;;;;;;25.65;14.02;;;;;;;;;;5015996;28;20034;-57
2021/07/20 04:23:24;;;;;;;23.98;13.90;;;;;;;;;;5012503;28;20060;-58
2021/07/20 04:25:56;;;;;;;27.23;15.07;;;;;;;;;;5014199;28;20069;-57
2021/07/20 04:28:28;;;;;;;26.87;14.17;;;;;;;;;;5014460;28;20047;-57
2021/07/20 04:30:56;;;;;;;25.40;14.63;;;;;;;;;;5009622;28;20120;-56
2021/07/20 04:33:26;;;;;;;29.67;14.27;;;;;;;;;;5021552;28;20048;-55
2021/07/20 04:35:53;;;;;;;31.63;14.45;;;;;;;;;;5017437;28;20041;-56
2021/07/20 04:38:19;;;;;;;26.45;15.10;;;;;;;;;;5014657;28;20042;-58
2021/07/20 04:40:46;;;;;;;29.27;13.77;;;;;;;;;;5014121;28;20075;-58
2021/07/20 04:43:12;;;;;;;24.63;14.23;;;;;;;;;;5011748;28;20461;-57
2021/07/20 04:45:41;;;;;;;27.38;14.30;;;;;;;;;;5014721;28;20075;-58
2021/07/20 04:48:08;;;;;;;26.70;14.48;;;;;;;;;;5012020;28;20809;-58
2021/07/20 04:50:34;;;;;;;26.60;15.02;;;;;;;;;;5012517;28;20470;-57
2021/07/20 04:53:02;;;;;;;29.02;14.52;;;;;;;;;;5017134;28;20546;-55
2021/07/20 04:55:49;;;;;;;32.58;14.52;;;;;;;;;;4999998;28;20034;-56
2021/07/20 04:58:15;;;;;;;23.55;13.10;;;;;;;;;;5006526;28;20053;-55
2021/07/20 05:00:42;;;;;;;27.92;14.60;;;;;;;;;;5004929;28;20046;-55
2021/07/20 05:03:12;;;;;;;25.75;14.38;;;;;;;;;;5005195;28;20076;-58
2021/07/20 05:05:38;;;;;;;26.55;14.18;;;;;;;;;;5005610;28;20046;-57
2021/07/20 05:08:07;;;;;;;29.77;14.23;;;;;;;;;;5004965;28;20042;-57
2021/07/20 05:10:38;;;;;;;27.25;13.98;;;;;;;;;;5010439;28;20042;-59
2021/07/20 05:13:07;;;;;;;25.75;13.43;;;;;;;;;;4995886;28;20921;-55
2021/07/20 05:15:34;;;;;;;25.77;13.40;;;;;;;;;;5000986;28;20546;-57
2021/07/20 05:18:00;;;;;;;23.60;12.88;;;;;;;;;;5002512;28;20034;-56
2021/07/20 05:20:26;;;;;;;29.30;13.43;;;;;;;;;;5002453;28;20042;-57
2021/07/20 05:22:53;;;;;;;27.05;13.48;;;;;;;;;;5003170;28;20051;-57
2021/07/20 05:25:19;;;;;;;23.25;12.63;;;;;;;;;;4997414;28;20066;-55
2021/07/20 05:27:46;;;;;;;24.55;12.20;;;;;;;;;;4997810;28;20041;-57
2021/07/20 05:30:12;;;;;;;27.08;14.15;;;;;;;;;;4997453;28;20471;-57
2021/07/20 05:32:42;;;;;;;22.88;12.52;;;;;;;;;;4993574;28;20686;-52
2021/07/20 05:35:15;;;;;;;26.10;12.48;;;;;;;;;;4987510;28;20831;-56
2021/07/20 05:37:41;;;;;;;23.15;12.82;;;;;;;;;;4985118;28;20187;-57
2021/07/20 05:40:08;;;;;;;26.42;13.88;;;;;;;;;;4986939;28;20199;-55
2021/07/20 05:42:35;;;;;;;24.52;12.00;;;;;;;;;;4987991;28;20043;-55
2021/07/20 05:45:01;;;;;;;24.23;11.93;;;;;;;;;;4987212;28;20083;-56
2021/07/20 05:47:28;;;;;;;20.98;12.10;;;;;;;;;;4985638;28;20156;-55
2021/07/20 05:49:54;;;;;;;24.40;12.20;;;;;;;;;;4993879;28;20045;-55
2021/07/20 05:52:20;;;;;;;22.63;11.60;;;;;;;;;;5017261;28;20072;-56
2021/07/20 05:54:47;;;;;;;23.02;13.23;;;;;;;;;;5017302;28;20034;-54
2021/07/20 05:57:12;;;;;;;22.00;12.45;;;;;;;;;;5011811;28;20436;-55
2021/07/20 05:59:39;;;;;;;24.58;13.38;;;;;;;;;;5009730;28;20099;-56
2021/07/20 06:02:10;;;;;;;29.20;12.93;;;;;;;;;;5010694;28;20071;-56
2021/07/20 06:04:37;;;;;;;29.33;13.25;;;;;;;;;;5009125;28;20030;-55
2021/07/20 06:07:04;;;;;;;27.42;13.23;;;;;;;;;;5008766;28;20030;-55
2021/07/20 06:09:33;;;;;;;26.27;12.63;;;;;;;;;;5010457;28;20044;-54
2021/07/20 06:11:59;;;;;;;21.30;11.75;;;;;;;;;;5010557;28;20041;-56
2021/07/20 06:14:25;;;;;;;26.50;11.68;;;;;;;;;;5008635;28;20445;-54
2021/07/20 06:16:51;;;;;;;22.02;11.75;;;;;;;;;;5011052;28;20041;-56
2021/07/20 06:19:17;;;;;;;20.73;11.23;;;;;;;;;;5008459;28;20104;-55
2021/07/20 06:21:43;;;;;;;22.88;12.77;;;;;;;;;;5008785;28;20117;-55
2021/07/20 06:24:10;;;;;;;25.50;11.52;;;;;;;;;;5009434;28;20030;-56
2021/07/20 06:26:36;;;;;;;22.05;11.32;;;;;;;;;;5008306;28;20091;-56
2021/07/20 06:29:03;;;;;;;26.80;13.32;;;;;;;;;;5010335;28;20153;-54
2021/07/20 06:31:30;;;;;;;21.65;11.60;;;;;;;;;;5008800;28;20048;-57
2021/07/20 06:33:56;;;;;;;22.10;11.43;;;;;;;;;;5007773;28;20038;-53
2021/07/20 06:36:23;;;;;;;25.10;11.77;;;;;;;;;;5005056;28;20112;-55
2021/07/20 06:38:49;;;;;;;23.90;11.98;;;;;;;;;;5008192;28;20410;-57
2021/07/20 06:41:18;;;;;;;25.75;12.45;;;;;;;;;;5008568;28;20049;-56
2021/07/20 06:43:43;;;;;;;23.63;12.02;;;;;;;;;;5008947;28;20128;-56
2021/07/20 06:46:10;;;;;;;21.45;11.68;;;;;;;;;;5009021;28;20069;-57
2021/07/20 06:48:43;;;;;;;24.08;11.95;;;;;;;;;;5008977;28;20037;-57
2021/07/20 06:51:08;;;;;;;;;;;;;;;;;;5009035;28;20815;-54
2021/07/20 06:53:37;;;;;;;29.02;12.15;;;;;;;;;;5009472;28;19917;-57
2021/07/20 06:56:04;;;;;;;18.50;10.38;;;;;;;;;;5008455;28;20124;-55
2021/07/20 06:58:31;;;;;;;26.02;10.65;;;;;;;;;;5005978;28;20053;-53
2021/07/20 07:00:58;;;;;;;22.40;12.20;;;;;;;;;;5009205;28;20041;-54
2021/07/20 07:03:32;;;;;;;21.40;11.30;;;;;;;;;;5007478;28;20532;-56
2021/07/20 07:06:00;;;;;;;25.88;11.98;;;;;;;;;;5005305;28;20046;-55
2021/07/20 07:08:27;;;;;;;20.65;10.63;;;;;;;;;;5008383;28;20124;-55
2021/07/20 07:10:54;;;;;;;22.63;12.13;;;;;;;;;;5011574;28;20507;-53
2021/07/20 07:13:21;;;;;;;20.80;10.40;;;;;;;;;;5006394;28;20045;-57
2021/07/20 07:15:47;;;;;;;18.35;9.60;;;;;;;;;;5009051;28;20045;-57
2021/07/20 07:18:13;;;;;;;22.15;11.30;;;;;;;;;;5008500;28;20045;-56
2021/07/20 07:20:40;;;;;;;20.35;10.55;;;;;;;;;;5007073;28;20037;-54
2021/07/20 07:23:05;;;;;;;21.17;10.98;;;;;;;;;;5009024;28;20050;-55
2021/07/20 07:25:32;;;;;;;20.70;10.60;;;;;;;;;;5007730;28;20727;-56
2021/07/20 07:27:58;;;;;;;21.08;10.02;;;;;;;;;;5004854;28;20034;-55
2021/07/20 07:30:24;;;;;;;18.17;10.23;;;;;;;;;;5008976;28;20936;-55
2021/07/20 07:32:50;;;;;;;19.95;10.63;;;;;;;;;;5011954;28;20172;-55
2021/07/20 07:35:16;;;;;;;19.77;9.63;;;;;;;;;;5011722;28;20398;-56
2021/07/20 07:37:43;;;;;;;21.80;10.20;;;;;;;;;;5012191;28;20041;-55
2021/07/20 07:40:11;;;;;;;17.67;9.57;;;;;;;;;;5012205;28;20430;-56
2021/07/20 07:42:38;;;;;;;16.92;8.95;;;;;;;;;;5011007;28;20045;-54
2021/07/20 07:45:05;;;;;;;19.10;9.98;;;;;;;;;;5014260;28;20053;-56
2021/07/20 07:47:31;;;;;;;23.80;9.70;;;;;;;;;;5011434;28;20100;-57
2021/07/20 07:49:57;;;;;;;16.80;9.13;;;;;;;;;;5012389;28;20044;-55
2021/07/20 07:52:23;;;;;;;24.15;9.10;;;;;;;;;;5010829;28;20041;-54
2021/07/20 07:54:50;;;;;;;24.77;10.35;;;;;;;;;;5013207;28;20049;-57
2021/07/20 07:57:17;;;;;;;29.50;9.80;;;;;;;;;;5012414;28;20045;-59
2021/07/20 07:59:43;;;;;;;24.45;9.63;;;;;;;;;;5011522;28;20092;-56
2021/07/20 08:02:11;;;;;;;38.65;9.98;;;;;;;;;;5011917;28;20136;-56
2021/07/20 08:04:39;;;;;;;35.40;9.73;;;;;;;;;;5012041;28;20791;-56
2021/07/20 08:07:05;;;;;;;34.00;12.00;;;;;;;;;;5012923;28;20048;-56
2021/07/20 08:09:32;;;;;;;31.67;11.10;;;;;;;;;;5011004;28;20041;-55
2021/07/20 08:11:59;;;;;;;21.27;10.50;;;;;;;;;;5011073;28;20040;-54
2021/07/20 08:14:26;;;;;;;19.10;10.10;;;;;;;;;;5009705;28;20095;-55
2021/07/20 08:16:55;;;;;;;20.63;9.88;;;;;;;;;;5011057;28;20037;-56
2021/07/20 08:19:21;;;;;;;34.60;10.68;;;;;;;;;;5009130;28;20050;-52
2021/07/20 08:21:46;;;;;;;25.85;9.80;;;;;;;;;;5011067;28;20055;-51
2021/07/20 08:24:15;;;;;;;25.35;9.82;;;;;;;;;;5011753;28;20372;-54
2021/07/20 08:26:52;;;;;;;27.15;9.57;;;;;;;;;;5011058;28;20052;-55
2021/07/20 08:29:23;;;;;;;38.90;10.30;;;;;;;;;;5008866;28;20045;-54
2021/07/20 08:31:50;;;;;;;24.95;9.88;;;;;;;;;;5012534;28;20530;-57
2021/07/20 08:34:16;;;;;;;16.35;8.80;;;;;;;;;;5011332;28;20112;-53
2021/07/20 08:36:43;;;;;;;14.95;8.40;;;;;;;;;;5008988;28;20518;-56
2021/07/20 08:39:10;;;;;;;17.85;8.98;;;;;;;;;;5009852;28;20096;-55
2021/07/20 08:41:59;;;;;;;16.70;8.80;;;;;;;;;;5010150;28;20058;-56
2021/07/20 08:44:44;;;;;;;21.65;10.35;;;;;;;;;;5009605;28;20045;-58
2021/07/20 08:47:31;;;;;;;29.83;10.50;;;;;;;;;;5011006;28;20038;-56
2021/07/20 08:50:13;;;;;;;24.17;10.32;;;;;;;;;;5010849;28;20056;-57
2021/07/20 08:52:42;;;;;;;27.52;10.65;;;;;;;;;;5010296;28;20033;-55
2021/07/20 08:55:22;;;;;;;24.30;10.25;;;;;;;;;;5016728;28;20128;-55
2021/07/20 08:57:50;;;;;;;24.63;10.32;;;;;;;;;;5009852;28;20042;-54
2021/07/20 09:00:17;;;;;;;22.35;10.93;;;;;;;;;;5011649;28;20057;-56
2021/07/20 09:02:55;;;;;;;33.97;10.43;;;;;;;;;;5011930;28;20042;-56
2021/07/20 09:05:26;;;;;;;28.75;9.65;;;;;;;;;;5008370;28;20090;-57
2021/07/20 09:08:00;;;;;;;18.38;9.02;;;;;;;;;;5012923;28;20616;-52
2021/07/20 09:10:30;;;;;;;18.42;9.52;;;;;;;;;;5010327;28;20046;-55
2021/07/20 09:12:56;;;;;;;17.48;8.30;;;;;;;;;;5011721;28;20051;-54
2021/07/20 09:15:25;;;;;;;19.45;9.45;;;;;;;;;;5013241;28;20073;-52
2021/07/20 09:17:53;;;;;;;20.65;10.55;;;;;;;;;;5014309;28;20035;-56
2021/07/20 09:20:39;;;;;;;24.58;11.35;;;;;;;;;;5011629;28;20037;-56
2021/07/20 09:23:17;;;;;;;23.73;11.52;;;;;;;;;;5011352;28;20077;-55
2021/07/20 09:25:52;;;;;;;25.88;10.15;;;;;;;;;;5011801;28;20052;-56
2021/07/20 09:28:30;;;;;;;23.00;11.10;;;;;;;;;;5010930;28;20049;-57
2021/07/20 09:30:57;;;;;;;23.17;11.30;;;;;;;;;;5012291;28;21839;-56
2021/07/20 09:33:38;;;;;;;25.85;11.55;;;;;;;;;;5010254;28;20104;-56
2021/07/20 09:36:22;;;;;;;43.15;13.88;;;;;;;;;;5010372;28;20100;-55
2021/07/20 09:39:00;;;;;;;22.10;10.65;;;;;;;;;;5010129;28;20085;-53
2021/07/20 09:41:35;;;;;;;29.80;11.35;;;;;;;;;;5008930;28;20049;-57
2021/07/20 09:44:06;;;;;;;23.25;11.80;;;;;;;;;;5010569;28;20042;-58
2021/07/20 09:46:35;;;;;;;21.80;10.85;;;;;;;;;;5011349;28;20113;-54
2021/07/20 09:49:03;;;;;;;22.60;11.48;;;;;;;;;;5010852;28;20080;-53
2021/07/20 09:52:01;;;;;;;22.52;11.52;;;;;;;;;;5012580;28;20080;-56
2021/07/20 09:54:45;;;;;;;20.90;11.05;;;;;;;;;;4992773;28;20048;-56
2021/07/20 09:57:14;;;;;;;17.83;9.35;;;;;;;;;;5020136;28;20042;-56
2021/07/20 09:59:45;;;;;;;17.02;9.15;;;;;;;;;;5019450;28;20144;-56
2021/07/20 10:02:24;;;;;;;19.38;10.27;;;;;;;;;;5016380;28;20447;-57
2021/07/20 10:05:07;;;;;;;20.73;10.60;;;;;;;;;;5013039;28;20056;-55
2021/07/20 10:07:33;;;;;;;;;;;;;;;;;;5013959;28;20030;-55
2021/07/20 10:10:07;;;;;;;20.38;9.55;;;;;;;;;;5009977;28;19921;-54
2021/07/20 10:12:51;;;;;;;18.02;9.57;;;;;;;;;;5008699;28;20099;-52
2021/07/20 10:15:20;;;;;;;17.77;9.07;;;;;;;;;;5010507;28;20519;-56
2021/07/20 10:17:48;;;;;;;19.52;10.02;;;;;;;;;;5007626;28;20140;-55
2021/07/20 10:20:14;;;;;;;19.30;9.75;;;;;;;;;;5008057;28;20045;-56
2021/07/20 10:22:49;;;;;;;17.45;9.98;;;;;;;;;;5009438;28;20087;-53
2021/07/20 10:25:23;;;;;;;17.58;10.05;;;;;;;;;;5011924;28;20045;-56
2021/07/20 10:28:04;;;;;;;18.67;10.07;;;;;;;;;;5011104;28;20030;-57
2021/07/20 10:30:34;;;;;;;17.98;8.65;;;;;;;;;;5009908;28;20753;-53
2021/07/20 10:33:07;;;;;;;19.70;8.77;;;;;;;;;;5010662;28;20124;-54
2021/07/20 10:35:54;;;;;;;16.05;8.90;;;;;;;;;;5010723;28;20051;-54
2021/07/20 10:38:22;;;;;;;17.60;9.50;;;;;;;;;;5010997;28;20187;-55
2021/07/20 10:40:51;;;;;;;17.58;9.45;;;;;;;;;;5012370;28;20648;-56
2021/07/20 10:43:31;;;;;;;17.05;9.27;;;;;;;;;;5010419;28;20040;-54
2021/07/20 10:45:57;;;;;;;15.65;8.70;;;;;;;;;;5009549;28;20571;-56
2021/07/20 10:48:27;;;;;;;14.63;8.68;;;;;;;;;;5009299;28;20042;-55
2021/07/20 10:50:54;;;;;;;15.50;8.38;;;;;;;;;;5010148;28;20069;-54
2021/07/20 10:53:23;;;;;;;18.73;9.50;;;;;;;;;;5009157;28;20423;-55
2021/07/20 10:56:07;;;;;;;16.15;9.32;;;;;;;;;;5008133;28;20121;-57
2021/07/20 10:58:45;;;;;;;17.17;8.23;;;;;;;;;;5007847;28;20049;-54
2021/07/20 11:01:17;;;;;;;16.55;8.32;;;;;;;;;;5009715;28;20084;-56
2021/07/20 11:03:48;;;;;;;13.57;8.15;;;;;;;;;;5007980;28;20053;-55
2021/07/20 11:06:17;;;;;;;15.32;9.00;;;;;;;;;;5009018;28;20044;-55
2021/07/20 11:08:44;;;;;;;14.85;8.07;;;;;;;;;;5011326;28;21013;-56
2021/07/20 11:11:17;;;;;;;15.10;7.57;;;;;;;;;;5012877;28;20049;-56
2021/07/20 11:13:43;;;;;;;14.95;7.82;;;;;;;;;;5014768;28;20037;-56
2021/07/20 11:16:10;;;;;;;14.45;7.28;;;;;;;;;;5014663;28;20069;-56
2021/07/20 11:18:40;;;;;;;11.35;6.50;;;;;;;;;;5013234;28;20612;-56
2021/07/20 11:21:08;;;;;;;14.32;7.72;;;;;;;;;;5014851;28;20037;-56
2021/07/20 11:23:38;;;;;;;14.07;7.55;;;;;;;;;;5010335;28;20347;-56
2021/07/20 11:26:05;;;;;;;13.73;8.02;;;;;;;;;;5010035;28;20519;-55
2021/07/20 11:28:31;;;;;;;15.52;8.00;;;;;;;;;;5010199;28;20045;-55
2021/07/20 11:30:58;;;;;;;15.65;8.45;;;;;;;;;;5011754;28;20506;-56
2021/07/20 11:33:32;;;;;;;15.48;8.77;;;;;;;;;;5008661;28;20045;-56
2021/07/20 11:35:59;;;;;;;18.85;9.07;;;;;;;;;;5009409;28;20048;-53
2021/07/20 11:38:28;;;;;;;15.73;8.70;;;;;;;;;;5008197;28;20124;-55
2021/07/20 11:41:00;;;;;;;15.10;8.70;;;;;;;;;;5008217;28;20053;-56
2021/07/20 11:43:33;;;;;;;17.42;9.23;;;;;;;;;;5008421;28;20039;-55
2021/07/20 11:45:59;;;;;;;;;;;;;;;;;;5009317;28;20033;-54
2021/07/20 11:48:29;;;;;;;17.77;8.60;;;;;;;;;;5010835;28;19917;-55
2021/07/20 11:50:55;;;;;;;16.52;8.85;;;;;;;;;;5010120;28;20077;-54
2021/07/20 11:53:39;;;;;;;17.30;9.23;;;;;;;;;;5009970;28;20133;-51
2021/07/20 11:56:24;;;;;;;19.58;9.27;;;;;;;;;;5008113;28;20037;-54
2021/07/20 11:59:04;;;;;;;17.90;9.85;;;;;;;;;;5008634;28;20140;-55
2021/07/20 12:01:48;;;;;;;17.63;10.05;;;;;;;;;;5007657;28;20436;-54
2021/07/20 12:04:35;;;;;;;19.38;9.13;;;;;;;;;;5007316;28;20503;-54
2021/07/20 12:07:20;;;;;;;19.00;10.20;;;;;;;;;;4991689;28;20053;-53
2021/07/20 12:10:04;;;;;;;24.52;11.38;;;;;;;;;;5008745;28;20064;-56
2021/07/20 12:12:50;;;;;;;17.52;9.57;;;;;;;;;;5008713;28;20061;-51
2021/07/20 12:15:17;;;;;;;15.48;8.88;;;;;;;;;;5007542;28;20072;-55
2021/07/20 12:17:44;;;;;;;18.73;9.85;;;;;;;;;;5010752;28;20033;-56
2021/07/20 12:20:11;;;;;;;16.02;8.90;;;;;;;;;;5012259;28;20065;-55
2021/07/20 12:22:38;;;;;;;16.08;8.93;;;;;;;;;;5011213;28;20152;-55
2021/07/20 12:25:05;;;;;;;14.38;8.63;;;;;;;;;;5010735;28;20041;-54
2021/07/20 12:27:31;;;;;;;15.88;8.55;;;;;;;;;;5011567;28;21314;-56
2021/07/20 12:29:57;;;;;;;17.75;9.57;;;;;;;;;;5013885;28;20040;-55
2021/07/20 12:32:26;;;;;;;17.98;9.15;;;;;;;;;;5010498;28;20053;-54
2021/07/20 12:34:53;;;;;;;17.60;9.77;;;;;;;;;;5009970;28;20046;-55
2021/07/20 12:37:19;;;;;;;21.95;10.07;;;;;;;;;;5010709;28;20044;-54
2021/07/20 12:39:44;;;;;;;18.08;9.88;;;;;;;;;;5010996;28;20136;-54
2021/07/20 12:42:10;;;;;;;19.38;9.52;;;;;;;;;;5012092;28;20038;-55
2021/07/20 12:44:37;;;;;;;17.70;9.43;;;;;;;;;;5009731;28;20052;-56
2021/07/20 12:47:05;;;;;;;21.83;10.73;;;;;;;;;;5012566;28;20359;-56
2021/07/20 12:49:31;;;;;;;26.95;11.82;;;;;;;;;;5011198;28;20770;-54
2021/07/20 12:51:56;;;;;;;16.95;9.50;;;;;;;;;;5016352;28;20111;-55
2021/07/20 12:54:39;;;;;;;16.38;9.07;;;;;;;;;;5013565;28;20045;-55
2021/07/20 12:57:05;;;;;;;17.77;9.88;;;;;;;;;;5012814;28;20069;-56
2021/07/20 12:59:32;;;;;;;20.95;10.57;;;;;;;;;;5011638;28;21025;-56
2021/07/20 13:01:58;;;;;;;19.42;10.57;;;;;;;;;;5013963;28;20037;-52
2021/07/20 13:04:24;;;;;;;20.88;10.52;;;;;;;;;;5010957;28;20057;-51
2021/07/20 13:06:51;;;;;;;19.70;10.25;;;;;;;;;;5011826;28;20108;-53
2021/07/20 13:09:18;;;;;;;24.40;10.98;;;;;;;;;;5014773;28;20640;-56
2021/07/20 13:11:44;;;;;;;19.35;12.13;;;;;;;;;;5012220;28;20046;-55
2021/07/20 13:14:10;;;;;;;23.20;11.70;;;;;;;;;;5011003;28;20044;-56
2021/07/20 13:16:36;;;;;;;19.63;10.90;;;;;;;;;;5010907;28;20033;-53
2021/07/20 13:19:05;;;;;;;23.40;11.13;;;;;;;;;;5011302;28;20135;-55
2021/07/20 13:21:49;;;;;;;23.25;10.93;;;;;;;;;;5011831;28;20037;-55
2021/07/20 13:24:15;;;;;;;21.55;10.68;;;;;;;;;;5013277;28;20042;-57
2021/07/20 13:26:41;;;;;;;21.40;11.02;;;;;;;;;;5012420;28;20668;-55
2021/07/20 13:29:08;;;;;;;22.77;11.65;;;;;;;;;;5011202;28;20057;-54
2021/07/20 13:31:37;;;;;;;21.40;11.02;;;;;;;;;;5012129;28;20794;-55
2021/07/20 13:34:04;;;;;;;27.48;11.90;;;;;;;;;;5015844;28;20474;-55
2021/07/20 13:36:31;;;;;;;19.88;10.68;;;;;;;;;;5013646;28;20395;-55
2021/07/20 13:38:57;;;;;;;20.42;10.18;;;;;;;;;;5014233;28;20542;-56
2021/07/20 13:41:23;;;;;;;19.80;9.75;;;;;;;;;;5010605;28;20093;-56
2021/07/20 13:43:51;;;;;;;17.98;9.55;;;;;;;;;;5011377;28;20176;-55
2021/07/20 13:46:17;;;;;;;17.58;9.63;;;;;;;;;;5011789;28;20034;-55
2021/07/20 13:48:46;;;;;;;21.38;10.25;;;;;;;;;;5010477;28;20037;-55
2021/07/20 13:51:13;;;;;;;18.95;10.05;;;;;;;;;;5009662;28;20037;-54
2021/07/20 13:53:41;;;;;;;26.45;11.70;;;;;;;;;;5010638;28;22161;-55
2021/07/20 13:56:15;;;;;;;21.88;10.02;;;;;;;;;;5012129;28;20049;-52
2021/07/20 13:58:42;;;;;;;26.40;11.02;;;;;;;;;;5011273;28;20426;-55
2021/07/20 14:01:08;;;;;;;21.73;11.18;;;;;;;;;;5012762;28;20058;-55
2021/07/20 14:03:35;;;;;;;27.05;11.88;;;;;;;;;;5008958;28;20732;-55
2021/07/20 14:06:01;;;;;;;23.02;11.35;;;;;;;;;;5010343;28;20038;-54
2021/07/20 14:08:27;;;;;;;29.58;12.27;;;;;;;;;;5009396;28;20043;-55
2021/07/20 14:10:56;;;;;;;24.02;10.93;;;;;;;;;;5011368;28;20069;-53
2021/07/20 14:13:24;;;;;;;16.15;9.85;;;;;;;;;;5010773;28;20644;-53
2021/07/20 14:15:50;;;;;;;20.08;9.82;;;;;;;;;;5013558;28;20049;-55
2021/07/20 14:18:16;;;;;;;21.13;9.40;;;;;;;;;;5015213;28;20033;-56
2021/07/20 14:20:42;;;;;;;23.73;10.55;;;;;;;;;;5013498;28;20046;-56
2021/07/20 14:23:07;;;;;;;21.27;9.90;;;;;;;;;;5015421;28;20034;-55
2021/07/20 14:25:43;;;;;;;18.77;10.07;;;;;;;;;;5012635;28;20029;-56
2021/07/20 14:28:09;;;;;;;18.35;9.52;;;;;;;;;;5012202;28;20046;-53
2021/07/20 14:30:43;;;;;;;25.92;9.73;;;;;;;;;;5010579;28;20037;-57
2021/07/20 14:33:09;;;;;;;20.00;9.52;;;;;;;;;;5009789;28;20037;-56
2021/07/20 14:35:36;;;;;;;16.67;9.35;;;;;;;;;;5011094;28;20474;-51